createdAt,value
2022-11-10T00:00:24.252Z,15.70
2022-11-10T00:03:08.466Z,15.70
2022-11-10T00:05:38.409Z,15.80
2022-11-10T00:08:04.876Z,15.80
2022-11-10T00:10:31.404Z,15.80
2022-11-10T00:12:57.876Z,15.80
2022-11-10T00:15:24.352Z,15.80
2022-11-10T00:17:56.636Z,15.80
2022-11-10T00:20:23.138Z,15.80
2022-11-10T00:22:49.689Z,15.80
2022-11-10T00:25:16.192Z,15.80
2022-11-10T00:27:42.648Z,15.80
2022-11-10T00:30:14.435Z,15.80
2022-11-10T00:32:40.897Z,15.70
2022-11-10T00:35:08.418Z,15.70
2022-11-10T00:37:34.867Z,15.80
2022-11-10T00:40:01.349Z,15.80
2022-11-10T00:42:27.816Z,15.80
2022-11-10T00:44:54.307Z,15.70
2022-11-10T00:47:20.755Z,15.70
2022-11-10T00:49:47.230Z,15.70
2022-11-10T00:52:13.715Z,15.70
2022-11-10T00:54:40.178Z,15.80
2022-11-10T00:57:08.403Z,15.70
2022-11-10T00:59:38.455Z,15.70
2022-11-10T01:02:04.914Z,15.80
2022-11-10T01:04:31.411Z,15.70
2022-11-10T01:06:57.946Z,15.80
2022-11-10T01:09:24.471Z,15.80
2022-11-10T01:11:50.934Z,15.80
2022-11-10T01:14:20.478Z,15.70
2022-11-10T01:16:50.432Z,15.70
2022-11-10T01:19:16.943Z,15.70
2022-11-10T01:21:50.671Z,15.70
2022-11-10T01:24:17.148Z,15.80
2022-11-10T01:26:43.604Z,15.70
2022-11-10T01:29:10.087Z,15.70
2022-11-10T01:31:36.549Z,15.80
2022-11-10T01:34:03.011Z,15.70
2022-11-10T01:36:29.476Z,15.60
2022-11-10T01:38:56.028Z,15.60
2022-11-10T01:41:22.521Z,15.70
2022-11-10T01:43:48.986Z,15.70
2022-11-10T01:46:20.475Z,15.50
2022-11-10T01:48:46.936Z,15.60
2022-11-10T01:51:14.501Z,15.70
2022-11-10T01:53:40.958Z,15.60
2022-11-10T01:56:07.432Z,15.60
2022-11-10T01:58:33.899Z,15.60
2022-11-10T02:01:00.413Z,15.70
2022-11-10T02:03:32.716Z,15.70
2022-11-10T02:05:59.188Z,15.60
2022-11-10T02:08:25.668Z,15.70
2022-11-10T02:10:52.125Z,15.70
2022-11-10T02:13:18.712Z,15.60
2022-11-10T02:15:45.316Z,15.50
2022-11-10T02:18:11.779Z,15.60
2022-11-10T02:20:38.521Z,15.70
2022-11-10T02:23:20.899Z,15.70
2022-11-10T02:25:47.495Z,15.70
2022-11-10T02:28:14.508Z,15.60
2022-11-10T02:30:40.988Z,15.70
2022-11-10T02:33:08.485Z,15.70
2022-11-10T02:35:34.945Z,15.70
2022-11-10T02:38:01.410Z,15.70
2022-11-10T02:40:27.860Z,15.70
2022-11-10T02:42:56.507Z,15.70
2022-11-10T02:45:22.965Z,15.60
2022-11-10T02:47:49.421Z,15.70
2022-11-10T02:50:15.901Z,15.60
2022-11-10T02:52:44.512Z,15.60
2022-11-10T02:55:11.004Z,15.70
2022-11-10T02:57:37.482Z,15.70
2022-11-10T03:00:03.958Z,15.70
2022-11-10T03:02:32.377Z,15.50
2022-11-10T03:05:08.633Z,15.70
2022-11-10T03:07:35.123Z,15.60
2022-11-10T03:10:01.588Z,15.70
2022-11-10T03:12:28.059Z,15.70
2022-11-10T03:14:54.503Z,15.60
2022-11-10T03:17:20.951Z,15.50
2022-11-10T03:19:47.410Z,15.60
2022-11-10T03:22:14.555Z,15.50
2022-11-10T03:24:44.794Z,15.60
2022-11-10T03:27:11.266Z,15.60
2022-11-10T03:29:44.628Z,15.50
2022-11-10T03:32:11.107Z,15.50
2022-11-10T03:34:38.530Z,15.60
2022-11-10T03:37:04.978Z,15.60
2022-11-10T03:39:31.442Z,15.60
2022-11-10T03:41:57.896Z,15.50
2022-11-10T03:44:24.371Z,15.60
2022-11-10T03:46:51.819Z,15.50
2022-11-10T03:49:18.457Z,15.50
2022-11-10T03:57:26.594Z,15.50
2022-11-10T03:59:53.055Z,15.60
2022-11-10T04:02:19.511Z,15.60
2022-11-10T04:04:45.979Z,15.60
2022-11-10T04:07:12.508Z,15.50
2022-11-10T04:09:39.000Z,15.50
2022-11-10T04:12:05.465Z,15.50
2022-11-10T04:14:32.518Z,15.50
2022-11-10T04:16:58.979Z,15.60
2022-11-10T04:19:25.471Z,15.50
2022-11-10T04:21:52.016Z,15.50
2022-11-10T04:24:18.484Z,15.60
2022-11-10T04:26:44.948Z,15.60
2022-11-10T04:29:11.415Z,15.60
2022-11-10T04:31:37.873Z,15.70
2022-11-10T04:34:04.335Z,15.70
2022-11-10T04:36:30.805Z,15.60
2022-11-10T04:38:57.296Z,15.60
2022-11-10T04:41:23.759Z,15.60
2022-11-10T04:43:50.213Z,15.60
2022-11-10T04:46:20.667Z,15.50
2022-11-10T04:48:47.156Z,15.50
2022-11-10T04:51:13.665Z,15.50
2022-11-10T04:53:40.180Z,15.50
2022-11-10T04:56:08.647Z,15.50
2022-11-10T04:58:35.102Z,15.50
2022-11-10T05:01:02.683Z,15.60
2022-11-10T05:03:29.139Z,15.50
2022-11-10T05:05:55.611Z,15.40
2022-11-10T05:08:22.058Z,15.40
2022-11-10T05:10:48.527Z,15.40
2022-11-10T05:13:26.741Z,15.40
2022-11-10T05:15:53.209Z,15.50
2022-11-10T05:18:19.666Z,15.50
2022-11-10T05:20:50.680Z,15.60
2022-11-10T05:23:20.970Z,15.40
2022-11-10T05:25:50.674Z,15.40
2022-11-10T05:28:17.143Z,15.50
2022-11-10T05:30:43.618Z,15.50
2022-11-10T05:33:10.069Z,15.30
2022-11-10T05:35:38.661Z,15.40
2022-11-10T05:38:05.122Z,15.40
2022-11-10T05:40:31.606Z,15.40
2022-11-10T05:43:02.901Z,15.40
2022-11-10T05:45:29.380Z,15.50
2022-11-10T05:47:55.854Z,15.40
2022-11-10T05:50:22.321Z,15.50
2022-11-10T05:52:50.323Z,15.50
2022-11-10T05:55:17.012Z,15.40
2022-11-10T05:57:43.480Z,15.40
2022-11-10T06:00:09.944Z,15.40
2022-11-10T06:02:36.406Z,15.30
2022-11-10T06:05:02.899Z,15.40
2022-11-10T06:07:29.348Z,15.30
2022-11-10T06:09:55.825Z,15.40
2022-11-10T06:12:22.274Z,15.40
2022-11-10T06:14:48.759Z,15.40
2022-11-10T06:17:15.221Z,15.40
2022-11-10T06:19:41.715Z,15.50
2022-11-10T06:22:08.664Z,15.40
2022-11-10T06:24:35.151Z,15.40
2022-11-10T06:27:01.599Z,15.40
2022-11-10T06:29:28.072Z,15.50
2022-11-10T06:34:44.724Z,15.50
2022-11-10T06:37:11.186Z,15.40
2022-11-10T06:39:37.675Z,15.40
2022-11-10T06:42:04.126Z,15.40
2022-11-10T06:44:30.614Z,15.40
2022-11-10T06:46:57.056Z,15.30
2022-11-10T06:49:23.553Z,15.30
2022-11-10T06:51:50.005Z,15.40
2022-11-10T06:54:16.452Z,15.30
2022-11-10T06:56:42.916Z,15.30
2022-11-10T06:59:09.360Z,15.40
2022-11-10T07:01:38.801Z,15.40
2022-11-10T07:04:19.140Z,15.40
2022-11-10T07:06:46.520Z,15.50
2022-11-10T07:09:13.072Z,15.40
2022-11-10T07:11:39.538Z,15.20
2022-11-10T07:14:06.022Z,15.30
2022-11-10T07:16:32.513Z,15.20
2022-11-10T07:18:58.975Z,15.20
2022-11-10T07:21:25.430Z,15.40
2022-11-10T07:24:02.770Z,15.40
2022-11-10T07:26:29.247Z,15.20
2022-11-10T07:28:55.690Z,15.20
2022-11-10T07:31:22.142Z,15.30
2022-11-10T07:33:54.258Z,15.30
2022-11-10T07:36:21.039Z,15.20
2022-11-10T07:38:50.918Z,15.20
2022-11-10T07:41:17.373Z,15.20
2022-11-10T07:43:43.834Z,15.30
2022-11-10T07:46:10.311Z,15.30
2022-11-10T07:48:36.792Z,15.30
2022-11-10T07:51:03.243Z,15.40
2022-11-10T07:53:29.702Z,15.40
2022-11-10T07:55:56.204Z,15.30
2022-11-10T07:58:22.666Z,15.30
2022-11-10T08:03:39.091Z,15.50
2022-11-10T08:06:05.618Z,15.40
2022-11-10T08:08:32.103Z,15.40
2022-11-10T08:10:58.562Z,15.40
2022-11-10T08:13:25.129Z,15.40
2022-11-10T08:15:51.740Z,15.30
2022-11-10T08:18:18.212Z,15.30
2022-11-10T08:20:44.695Z,15.30
2022-11-10T08:23:21.409Z,15.30
2022-11-10T08:25:48.145Z,15.30
2022-11-10T08:28:14.608Z,15.40
2022-11-10T08:30:41.075Z,15.50
2022-11-10T08:33:08.805Z,15.40
2022-11-10T08:35:38.838Z,15.40
2022-11-10T08:38:09.010Z,15.30
2022-11-10T08:40:36.055Z,15.30
2022-11-10T08:43:02.503Z,15.20
2022-11-10T08:45:32.844Z,15.30
2022-11-10T08:47:59.304Z,15.30
2022-11-10T08:50:25.764Z,15.30
2022-11-10T08:52:57.027Z,15.40
2022-11-10T08:55:23.524Z,15.40
2022-11-10T08:57:49.994Z,15.50
2022-11-10T09:00:16.477Z,15.50
2022-11-10T09:02:42.932Z,15.40
2022-11-10T09:05:09.407Z,15.50
2022-11-10T09:07:35.874Z,15.50
2022-11-10T09:10:07.109Z,15.50
2022-11-10T09:12:33.936Z,15.50
2022-11-10T09:15:00.394Z,15.50
2022-11-10T09:17:32.853Z,15.50
2022-11-10T09:19:59.365Z,15.60
2022-11-10T09:22:25.882Z,15.60
2022-11-10T09:24:52.626Z,15.60
2022-11-10T09:27:19.160Z,15.50
2022-11-10T09:29:50.940Z,15.60
2022-11-10T09:32:17.397Z,15.60
2022-11-10T09:34:46.581Z,15.60
2022-11-10T09:37:15.376Z,15.60
2022-11-10T09:39:41.850Z,15.60
2022-11-10T09:42:08.310Z,15.60
2022-11-10T09:44:34.770Z,15.70
2022-11-10T09:47:01.244Z,15.70
2022-11-10T09:49:27.701Z,15.70
2022-11-10T09:51:54.165Z,15.70
2022-11-10T09:54:20.873Z,15.70
2022-11-10T09:56:47.356Z,15.70
2022-11-10T09:59:13.809Z,15.70
2022-11-10T10:04:31.408Z,15.70
2022-11-10T10:09:50.904Z,15.70
2022-11-10T10:12:17.374Z,15.70
2022-11-10T10:14:43.826Z,15.70
2022-11-10T10:17:10.275Z,15.70
2022-11-10T10:19:36.724Z,15.80
2022-11-10T10:22:08.914Z,15.80
2022-11-10T10:24:39.066Z,15.80
2022-11-10T10:27:08.914Z,15.80
2022-11-10T10:29:37.598Z,15.80
2022-11-10T10:32:04.395Z,15.80
2022-11-10T10:34:30.848Z,15.80
2022-11-10T10:36:57.312Z,15.80
2022-11-10T10:39:23.774Z,15.80
2022-11-10T10:41:50.261Z,15.80
2022-11-10T10:44:16.706Z,15.80
2022-11-10T10:46:43.171Z,15.80
2022-11-10T10:51:56.948Z,15.80
2022-11-10T10:54:23.408Z,15.80
2022-11-10T10:56:49.873Z,15.90
2022-11-10T10:59:16.325Z,15.90
2022-11-10T11:01:42.841Z,15.90
2022-11-10T11:04:09.358Z,15.90
2022-11-10T11:06:35.890Z,15.90
2022-11-10T11:09:02.396Z,15.90
2022-11-10T11:11:32.958Z,15.90
2022-11-10T11:13:59.423Z,15.90
2022-11-10T11:19:16.214Z,15.90
2022-11-10T11:21:42.692Z,15.90
2022-11-10T11:24:09.139Z,15.90
2022-11-10T11:26:35.604Z,15.90
2022-11-10T11:29:02.062Z,15.90
2022-11-10T11:31:28.536Z,15.90
2022-11-10T11:33:54.990Z,15.90
2022-11-10T11:36:21.456Z,15.90
2022-11-10T11:38:47.923Z,15.90
2022-11-10T11:41:14.395Z,15.90
2022-11-10T11:43:40.865Z,16.00
2022-11-10T11:46:08.964Z,15.90
2022-11-10T11:48:35.430Z,15.90
2022-11-10T11:51:02.997Z,15.90
2022-11-10T11:53:33.177Z,15.90
2022-11-10T11:55:59.642Z,15.90
2022-11-10T11:58:26.281Z,15.90
2022-11-10T12:00:52.871Z,15.90
2022-11-10T12:03:19.342Z,15.90
2022-11-10T12:05:45.807Z,15.90
2022-11-10T12:08:12.268Z,16.00
2022-11-10T12:10:43.018Z,15.90
2022-11-10T12:13:09.823Z,16.00
2022-11-10T12:15:36.333Z,15.90
2022-11-10T12:18:02.785Z,15.90
2022-11-10T12:20:33.008Z,15.90
2022-11-10T12:23:03.072Z,16.00
2022-11-10T12:25:29.535Z,15.90
2022-11-10T12:27:56.007Z,16.00
2022-11-10T12:30:27.192Z,15.90
2022-11-10T12:32:53.650Z,16.00
2022-11-10T12:35:20.103Z,16.00
2022-11-10T12:37:46.583Z,16.00
2022-11-10T12:40:13.055Z,16.00
2022-11-10T12:45:30.172Z,16.00
2022-11-10T12:47:56.648Z,16.00
2022-11-10T12:50:23.115Z,16.00
2022-11-10T12:52:49.591Z,16.00
2022-11-10T12:55:16.057Z,16.00
2022-11-10T12:57:42.507Z,15.90
2022-11-10T13:00:11.743Z,16.00
2022-11-10T13:02:45.050Z,16.00
2022-11-10T13:05:11.580Z,16.00
2022-11-10T13:07:39.035Z,16.00
2022-11-10T13:10:09.175Z,16.00
2022-11-10T13:12:35.658Z,16.00
2022-11-10T13:15:02.112Z,16.00
2022-11-10T13:17:28.629Z,16.00
2022-11-10T13:19:55.099Z,16.00
2022-11-10T13:22:25.355Z,16.00
2022-11-10T13:24:52.031Z,16.00
2022-11-10T13:27:18.539Z,16.00
2022-11-10T13:29:44.994Z,16.00
2022-11-10T13:32:11.449Z,16.00
2022-11-10T13:34:39.081Z,16.00
2022-11-10T13:37:05.546Z,16.00
2022-11-10T13:39:33.076Z,16.10
2022-11-10T13:41:59.538Z,16.00
2022-11-10T13:44:26.018Z,16.00
2022-11-10T13:46:57.242Z,16.00
2022-11-10T13:49:23.703Z,16.00
2022-11-10T13:51:50.161Z,16.00
2022-11-10T13:54:16.640Z,16.00
2022-11-10T13:56:43.104Z,16.00
2022-11-10T13:59:09.579Z,16.00
2022-11-10T14:01:36.028Z,16.00
2022-11-10T14:04:02.664Z,16.00
2022-11-10T14:06:29.317Z,16.00
2022-11-10T14:08:55.778Z,16.00
2022-11-10T14:11:22.262Z,16.00
2022-11-10T14:13:48.732Z,16.00
2022-11-10T14:16:21.106Z,16.00
2022-11-10T14:18:47.573Z,16.00
2022-11-10T14:21:14.048Z,16.00
2022-11-10T14:23:40.493Z,16.00
2022-11-10T14:26:09.069Z,16.00
2022-11-10T14:28:45.352Z,16.00
2022-11-10T14:31:11.828Z,16.00
2022-11-10T14:33:38.291Z,16.00
2022-11-10T14:36:04.766Z,16.00
2022-11-10T14:38:31.224Z,16.10
2022-11-10T14:40:57.695Z,16.00
2022-11-10T14:43:24.162Z,16.00
2022-11-10T14:45:51.131Z,16.00
2022-11-10T14:48:17.608Z,16.00
2022-11-10T14:50:44.096Z,16.00
2022-11-10T14:53:10.561Z,16.00
2022-11-10T14:55:37.037Z,16.00
2022-11-10T14:58:09.218Z,16.00
2022-11-10T15:03:27.146Z,16.00
2022-11-10T15:05:53.613Z,16.00
2022-11-10T15:08:21.513Z,16.00
2022-11-10T15:10:48.211Z,16.00
2022-11-10T15:13:14.678Z,16.00
2022-11-10T15:15:41.135Z,16.00
2022-11-10T15:18:07.598Z,16.00
2022-11-10T15:20:34.104Z,16.00
2022-11-10T15:23:00.550Z,16.00
2022-11-10T15:25:27.048Z,16.00
2022-11-10T15:27:57.341Z,16.00
2022-11-10T15:30:23.820Z,16.00
2022-11-10T15:32:50.346Z,16.00
2022-11-10T15:35:16.835Z,16.00
2022-11-10T15:37:45.124Z,16.00
2022-11-10T15:45:52.334Z,16.00
2022-11-10T15:48:33.302Z,16.00
2022-11-10T15:50:59.794Z,16.00
2022-11-10T15:53:27.139Z,16.00
2022-11-10T15:55:53.603Z,16.00
2022-11-10T15:58:20.432Z,16.00
2022-11-10T16:00:47.314Z,16.00
2022-11-10T16:03:15.142Z,16.00
2022-11-10T16:05:41.606Z,16.00
2022-11-10T16:08:10.826Z,16.00
2022-11-10T16:10:37.314Z,16.00
2022-11-10T16:13:03.790Z,16.00
2022-11-10T16:15:30.237Z,16.00
2022-11-10T16:17:57.204Z,16.00
2022-11-10T16:20:23.675Z,16.00
2022-11-10T16:22:50.132Z,16.00
2022-11-10T16:25:22.627Z,16.00
2022-11-10T16:27:51.751Z,16.00
2022-11-10T16:30:18.221Z,16.00
2022-11-10T16:32:51.213Z,16.00
2022-11-10T16:35:17.693Z,16.00
2022-11-10T16:37:44.154Z,16.00
2022-11-10T16:40:21.368Z,16.00
2022-11-10T16:42:47.838Z,16.00
2022-11-10T16:45:14.280Z,16.00
2022-11-10T16:47:40.760Z,16.00
2022-11-10T16:50:07.226Z,16.00
2022-11-10T16:52:33.684Z,16.00
2022-11-10T16:55:00.134Z,16.00
2022-11-10T16:57:26.602Z,16.00
2022-11-10T16:59:53.057Z,16.00
2022-11-10T17:02:19.525Z,15.90
2022-11-10T17:04:45.985Z,16.00
2022-11-10T17:07:15.279Z,15.90
2022-11-10T17:09:41.832Z,15.90
2022-11-10T17:12:08.305Z,15.90
2022-11-10T17:14:45.277Z,15.90
2022-11-10T17:17:11.760Z,15.90
2022-11-10T17:19:38.203Z,16.00
2022-11-10T17:22:04.684Z,15.90
2022-11-10T17:24:31.155Z,15.90
2022-11-10T17:26:57.612Z,15.90
2022-11-10T17:29:24.079Z,15.90
2022-11-10T17:31:50.636Z,16.00
2022-11-10T17:34:17.129Z,15.90
2022-11-10T17:36:45.267Z,15.90
2022-11-10T17:39:11.732Z,16.00
2022-11-10T17:41:38.181Z,16.00
2022-11-10T17:44:15.465Z,16.00
2022-11-10T17:46:41.949Z,16.00
2022-11-10T17:49:08.413Z,16.00
2022-11-10T17:51:34.881Z,16.00
2022-11-10T17:54:01.339Z,15.90
2022-11-10T17:56:27.818Z,15.90
2022-11-10T17:58:54.315Z,15.90
2022-11-10T18:01:20.858Z,15.90
2022-11-10T18:03:47.321Z,15.90
2022-11-10T18:06:14.970Z,15.90
2022-11-10T18:08:41.427Z,15.90
2022-11-10T18:11:09.294Z,15.90
2022-11-10T18:13:35.750Z,16.00
2022-11-10T18:16:02.228Z,15.90
2022-11-10T18:18:28.698Z,16.00
2022-11-10T18:20:55.175Z,15.90
2022-11-10T18:23:27.264Z,15.90
2022-11-10T18:25:53.749Z,15.90
2022-11-10T18:28:27.330Z,15.90
2022-11-10T18:30:53.815Z,15.90
2022-11-10T18:33:20.517Z,15.90
2022-11-10T18:35:47.218Z,15.90
2022-11-10T18:38:13.678Z,15.90
2022-11-10T18:40:40.168Z,15.90
2022-11-10T18:43:07.826Z,15.90
2022-11-10T18:45:34.463Z,15.90
2022-11-10T18:48:00.926Z,15.90
2022-11-10T18:50:27.383Z,15.90
2022-11-10T18:52:53.848Z,15.90
2022-11-10T18:55:20.305Z,15.90
2022-11-10T18:57:46.767Z,15.90
2022-11-10T19:00:13.242Z,15.90
2022-11-10T19:02:45.350Z,15.90
2022-11-10T19:05:11.804Z,15.80
2022-11-10T19:07:38.282Z,15.90
2022-11-10T19:10:04.736Z,15.90
2022-11-10T19:12:31.187Z,15.90
2022-11-10T19:14:57.655Z,15.90
2022-11-10T19:17:24.143Z,15.90
2022-11-10T19:19:56.023Z,15.90
2022-11-10T19:22:23.074Z,15.90
2022-11-10T19:25:07.226Z,15.80
2022-11-10T19:27:34.402Z,15.80
2022-11-10T19:30:00.853Z,15.80
2022-11-10T19:32:27.358Z,15.80
2022-11-10T19:34:57.475Z,15.90
2022-11-10T19:37:30.907Z,15.90
2022-11-10T19:40:00.724Z,15.80
2022-11-10T19:42:27.371Z,15.80
2022-11-10T19:44:53.839Z,15.80
2022-11-10T19:47:20.320Z,15.80
2022-11-10T19:49:46.766Z,15.80
2022-11-10T19:52:13.255Z,15.80
2022-11-10T19:54:39.710Z,15.80
2022-11-10T19:57:06.193Z,15.80
2022-11-10T19:59:39.418Z,15.80
2022-11-10T20:02:09.407Z,15.80
2022-11-10T20:04:35.879Z,15.80
2022-11-10T20:07:02.368Z,15.90
2022-11-10T20:09:33.395Z,15.80
2022-11-10T20:11:59.851Z,15.80
2022-11-10T20:14:26.304Z,15.70
2022-11-10T20:16:52.783Z,15.80
2022-11-10T20:19:19.255Z,15.80
2022-11-10T20:21:45.714Z,15.80
2022-11-10T20:24:15.408Z,15.80
2022-11-10T20:26:41.861Z,15.80
2022-11-10T20:29:08.312Z,15.70
2022-11-10T20:31:34.772Z,15.80
2022-11-10T20:34:01.238Z,15.80
2022-11-10T20:36:27.706Z,15.70
2022-11-10T20:38:54.174Z,15.80
2022-11-10T20:41:20.633Z,15.80
2022-11-10T20:43:47.098Z,15.80
2022-11-10T20:46:16.109Z,15.80
2022-11-10T20:48:49.176Z,15.70
2022-11-10T20:51:15.634Z,15.70
2022-11-10T20:53:45.426Z,15.70
2022-11-10T20:56:11.880Z,15.70
2022-11-10T20:58:38.356Z,15.80
2022-11-10T21:01:04.813Z,15.80
2022-11-10T21:03:31.316Z,15.70
2022-11-10T21:05:57.782Z,15.80
2022-11-10T21:08:24.261Z,15.70
2022-11-10T21:10:50.698Z,15.80
2022-11-10T21:13:21.888Z,15.70
2022-11-10T21:15:51.455Z,15.80
2022-11-10T21:18:17.914Z,15.70
2022-11-10T21:20:44.368Z,15.70
2022-11-10T21:23:10.831Z,15.70
2022-11-10T21:25:37.299Z,15.80
2022-11-10T21:28:09.554Z,15.70
2022-11-10T21:33:26.490Z,15.70
2022-11-10T21:35:52.957Z,15.70
2022-11-10T21:38:19.434Z,15.70
2022-11-10T21:40:45.914Z,15.70
2022-11-10T21:43:12.384Z,15.70
2022-11-10T21:45:38.874Z,15.70
2022-11-10T21:48:05.323Z,15.70
2022-11-10T21:50:31.769Z,15.70
2022-11-10T21:53:03.652Z,15.70
2022-11-10T21:55:30.134Z,15.70
2022-11-10T21:57:56.607Z,15.70
2022-11-10T22:00:23.087Z,15.70
2022-11-10T22:02:51.442Z,15.70
2022-11-10T22:05:17.920Z,15.70
2022-11-10T22:07:44.374Z,15.60
2022-11-10T22:10:10.841Z,15.50
2022-11-10T22:12:39.449Z,15.70
2022-11-10T22:15:05.945Z,15.70
2022-11-10T22:17:32.410Z,15.70
2022-11-10T22:22:49.447Z,15.70
2022-11-10T22:25:15.926Z,15.70
2022-11-10T22:27:42.374Z,15.70
2022-11-10T22:30:08.879Z,15.70
2022-11-10T22:32:39.634Z,15.70
2022-11-10T22:35:06.186Z,15.80
2022-11-10T22:37:32.681Z,15.70
2022-11-10T22:39:59.169Z,15.70
2022-11-10T22:42:27.469Z,15.70
2022-11-10T22:44:57.524Z,15.80
2022-11-10T22:47:23.998Z,15.80
2022-11-10T22:49:51.524Z,15.70
2022-11-10T22:52:21.719Z,15.70
2022-11-10T22:57:39.528Z,15.70
2022-11-10T23:00:06.038Z,15.70
2022-11-10T23:02:32.517Z,15.70
2022-11-10T23:07:49.519Z,15.70
2022-11-10T23:10:16.007Z,15.70
2022-11-10T23:12:42.452Z,15.70
2022-11-10T23:15:08.943Z,15.70
2022-11-10T23:17:35.433Z,15.70
2022-11-10T23:20:01.890Z,15.60
2022-11-10T23:22:28.342Z,15.60
2022-11-10T23:24:57.403Z,15.60
2022-11-10T23:27:24.110Z,15.60
2022-11-10T23:29:51.506Z,15.60
2022-11-10T23:32:17.988Z,15.70
2022-11-10T23:34:44.455Z,15.60
2022-11-10T23:37:15.667Z,15.60
2022-11-10T23:39:42.155Z,15.60
2022-11-10T23:42:08.617Z,15.60
2022-11-10T23:44:35.105Z,15.60
2022-11-10T23:47:01.593Z,15.70
2022-11-10T23:49:28.058Z,15.70
2022-11-10T23:51:54.506Z,15.60
2022-11-10T23:54:20.967Z,15.70
2022-11-10T23:56:47.414Z,15.70
2022-11-10T23:59:13.877Z,15.60
